sensor_id;sensor_type;location;lat;lon;timestamp;P1;durP1;ratioP1;P2;durP2;ratioP2
24102;SDS011;12278;53.058;9.028;2023-12-20T00:00:50;7.13;;;2.47;;
24102;SDS011;12278;53.058;9.028;2023-12-20T00:04:50;2.60;;;1.53;;
24102;SDS011;12278;53.058;9.028;2023-12-20T00:08:51;4.63;;;1.87;;
24102;SDS011;12278;53.058;9.028;2023-12-20T00:12:52;10.93;;;2.63;;
24102;SDS011;12278;53.058;9.028;2023-12-20T00:16:52;5.03;;;1.80;;
24102;SDS011;12278;53.058;9.028;2023-12-20T00:20:53;3.37;;;1.73;;
24102;SDS011;12278;53.058;9.028;2023-12-20T00:24:53;4.53;;;1.53;;
24102;SDS011;12278;53.058;9.028;2023-12-20T00:28:54;6.33;;;1.83;;
24102;SDS011;12278;53.058;9.028;2023-12-20T00:32:55;5.70;;;1.63;;
24102;SDS011;12278;53.058;9.028;2023-12-20T00:36:56;4.10;;;1.60;;
24102;SDS011;12278;53.058;9.028;2023-12-20T00:40:56;10.80;;;1.87;;
24102;SDS011;12278;53.058;9.028;2023-12-20T00:44:58;8.73;;;2.20;;
24102;SDS011;12278;53.058;9.028;2023-12-20T00:48:59;4.67;;;1.77;;
24102;SDS011;12278;53.058;9.028;2023-12-20T00:52:59;6.50;;;1.57;;
24102;SDS011;12278;53.058;9.028;2023-12-20T00:57:00;10.80;;;2.13;;
24102;SDS011;12278;53.058;9.028;2023-12-20T01:01:01;3.27;;;1.80;;
24102;SDS011;12278;53.058;9.028;2023-12-20T01:05:01;4.93;;;2.33;;
24102;SDS011;12278;53.058;9.028;2023-12-20T01:09:02;4.70;;;1.67;;
24102;SDS011;12278;53.058;9.028;2023-12-20T01:13:03;6.40;;;1.50;;
24102;SDS011;12278;53.058;9.028;2023-12-20T01:17:04;6.10;;;2.10;;
24102;SDS011;12278;53.058;9.028;2023-12-20T01:21:05;5.47;;;2.33;;
24102;SDS011;12278;53.058;9.028;2023-12-20T01:25:06;5.83;;;1.60;;
24102;SDS011;12278;53.058;9.028;2023-12-20T01:29:07;7.57;;;2.77;;
24102;SDS011;12278;53.058;9.028;2023-12-20T01:33:08;6.03;;;2.43;;
24102;SDS011;12278;53.058;9.028;2023-12-20T01:37:09;10.37;;;2.20;;
24102;SDS011;12278;53.058;9.028;2023-12-20T01:41:10;3.43;;;1.40;;
24102;SDS011;12278;53.058;9.028;2023-12-20T01:45:11;8.10;;;2.83;;
24102;SDS011;12278;53.058;9.028;2023-12-20T01:49:11;13.17;;;2.80;;
24102;SDS011;12278;53.058;9.028;2023-12-20T01:53:13;2.93;;;2.63;;
24102;SDS011;12278;53.058;9.028;2023-12-20T01:57:15;5.83;;;1.63;;
24102;SDS011;12278;53.058;9.028;2023-12-20T02:01:15;6.40;;;2.03;;
24102;SDS011;12278;53.058;9.028;2023-12-20T02:05:16;3.33;;;1.73;;
24102;SDS011;12278;53.058;9.028;2023-12-20T02:09:17;7.03;;;2.80;;
24102;SDS011;12278;53.058;9.028;2023-12-20T02:13:18;6.03;;;1.73;;
24102;SDS011;12278;53.058;9.028;2023-12-20T02:17:19;3.87;;;1.53;;
24102;SDS011;12278;53.058;9.028;2023-12-20T02:21:38;5.67;;;1.87;;
24102;SDS011;12278;53.058;9.028;2023-12-20T02:25:39;5.93;;;2.03;;
24102;SDS011;12278;53.058;9.028;2023-12-20T02:29:39;4.50;;;1.67;;
24102;SDS011;12278;53.058;9.028;2023-12-20T02:33:40;7.13;;;1.80;;
24102;SDS011;12278;53.058;9.028;2023-12-20T02:37:42;7.40;;;2.03;;
24102;SDS011;12278;53.058;9.028;2023-12-20T02:41:42;2.00;;;1.10;;
24102;SDS011;12278;53.058;9.028;2023-12-20T02:45:43;2.27;;;1.90;;
24102;SDS011;12278;53.058;9.028;2023-12-20T02:49:43;4.27;;;1.80;;
24102;SDS011;12278;53.058;9.028;2023-12-20T02:53:44;6.67;;;2.27;;
24102;SDS011;12278;53.058;9.028;2023-12-20T02:57:45;3.03;;;1.83;;
24102;SDS011;12278;53.058;9.028;2023-12-20T03:01:45;2.67;;;1.57;;
24102;SDS011;12278;53.058;9.028;2023-12-20T03:05:46;4.50;;;1.47;;
24102;SDS011;12278;53.058;9.028;2023-12-20T03:09:47;3.83;;;1.53;;
24102;SDS011;12278;53.058;9.028;2023-12-20T03:13:47;4.33;;;2.50;;
24102;SDS011;12278;53.058;9.028;2023-12-20T03:17:48;5.10;;;2.13;;
24102;SDS011;12278;53.058;9.028;2023-12-20T03:21:49;4.67;;;2.23;;
24102;SDS011;12278;53.058;9.028;2023-12-20T03:25:49;4.00;;;2.37;;
24102;SDS011;12278;53.058;9.028;2023-12-20T03:29:50;6.53;;;2.00;;
24102;SDS011;12278;53.058;9.028;2023-12-20T03:33:50;4.63;;;1.80;;
24102;SDS011;12278;53.058;9.028;2023-12-20T03:37:53;10.03;;;2.07;;
24102;SDS011;12278;53.058;9.028;2023-12-20T03:41:54;5.73;;;2.07;;
24102;SDS011;12278;53.058;9.028;2023-12-20T03:45:54;8.30;;;2.77;;
24102;SDS011;12278;53.058;9.028;2023-12-20T03:49:55;2.77;;;1.53;;
24102;SDS011;12278;53.058;9.028;2023-12-20T03:53:55;2.50;;;1.60;;
24102;SDS011;12278;53.058;9.028;2023-12-20T03:57:56;4.07;;;2.40;;
24102;SDS011;12278;53.058;9.028;2023-12-20T04:01:57;7.10;;;2.37;;
24102;SDS011;12278;53.058;9.028;2023-12-20T04:05:57;9.50;;;2.60;;
24102;SDS011;12278;53.058;9.028;2023-12-20T04:09:58;9.93;;;3.87;;
24102;SDS011;12278;53.058;9.028;2023-12-20T04:13:58;3.80;;;2.37;;
24102;SDS011;12278;53.058;9.028;2023-12-20T04:17:59;6.73;;;2.73;;
24102;SDS011;12278;53.058;9.028;2023-12-20T04:22:00;7.10;;;2.93;;
24102;SDS011;12278;53.058;9.028;2023-12-20T04:26:00;10.93;;;2.50;;
24102;SDS011;12278;53.058;9.028;2023-12-20T04:30:01;7.67;;;3.17;;
24102;SDS011;12278;53.058;9.028;2023-12-20T04:34:01;6.40;;;2.63;;
24102;SDS011;12278;53.058;9.028;2023-12-20T04:38:02;8.87;;;3.20;;
24102;SDS011;12278;53.058;9.028;2023-12-20T04:42:03;8.20;;;2.73;;
24102;SDS011;12278;53.058;9.028;2023-12-20T04:46:04;7.30;;;3.33;;
24102;SDS011;12278;53.058;9.028;2023-12-20T04:50:04;7.50;;;2.53;;
24102;SDS011;12278;53.058;9.028;2023-12-20T04:54:06;7.47;;;2.50;;
24102;SDS011;12278;53.058;9.028;2023-12-20T04:58:06;5.17;;;2.40;;
24102;SDS011;12278;53.058;9.028;2023-12-20T05:02:07;12.73;;;3.47;;
24102;SDS011;12278;53.058;9.028;2023-12-20T05:06:07;5.90;;;2.63;;
24102;SDS011;12278;53.058;9.028;2023-12-20T05:10:09;8.43;;;3.10;;
24102;SDS011;12278;53.058;9.028;2023-12-20T05:14:09;12.40;;;2.53;;
24102;SDS011;12278;53.058;9.028;2023-12-20T05:18:10;7.50;;;2.40;;
24102;SDS011;12278;53.058;9.028;2023-12-20T05:22:11;6.87;;;2.80;;
24102;SDS011;12278;53.058;9.028;2023-12-20T05:26:11;11.00;;;3.70;;
24102;SDS011;12278;53.058;9.028;2023-12-20T05:30:12;3.87;;;2.40;;
24102;SDS011;12278;53.058;9.028;2023-12-20T05:34:13;3.97;;;2.57;;
24102;SDS011;12278;53.058;9.028;2023-12-20T05:38:14;6.00;;;3.67;;
24102;SDS011;12278;53.058;9.028;2023-12-20T05:42:15;10.27;;;2.90;;
24102;SDS011;12278;53.058;9.028;2023-12-20T05:46:15;8.83;;;4.03;;
24102;SDS011;12278;53.058;9.028;2023-12-20T05:50:16;8.60;;;3.50;;
24102;SDS011;12278;53.058;9.028;2023-12-20T05:54:16;7.10;;;3.30;;
24102;SDS011;12278;53.058;9.028;2023-12-20T05:58:17;6.03;;;2.67;;
24102;SDS011;12278;53.058;9.028;2023-12-20T06:02:18;10.10;;;3.20;;
24102;SDS011;12278;53.058;9.028;2023-12-20T06:06:18;4.60;;;3.10;;
24102;SDS011;12278;53.058;9.028;2023-12-20T06:10:19;5.60;;;2.53;;
24102;SDS011;12278;53.058;9.028;2023-12-20T06:14:20;4.60;;;2.40;;
24102;SDS011;12278;53.058;9.028;2023-12-20T06:18:20;5.40;;;2.97;;
24102;SDS011;12278;53.058;9.028;2023-12-20T06:22:21;9.53;;;2.60;;
24102;SDS011;12278;53.058;9.028;2023-12-20T06:26:21;9.33;;;2.97;;
24102;SDS011;12278;53.058;9.028;2023-12-20T06:30:22;6.87;;;2.93;;
24102;SDS011;12278;53.058;9.028;2023-12-20T06:34:24;4.73;;;2.57;;
24102;SDS011;12278;53.058;9.028;2023-12-20T06:38:25;8.33;;;3.07;;
24102;SDS011;12278;53.058;9.028;2023-12-20T06:42:26;7.70;;;3.30;;
24102;SDS011;12278;53.058;9.028;2023-12-20T06:46:26;7.10;;;3.40;;
24102;SDS011;12278;53.058;9.028;2023-12-20T06:50:27;6.47;;;2.90;;
24102;SDS011;12278;53.058;9.028;2023-12-20T06:54:28;9.73;;;2.93;;
24102;SDS011;12278;53.058;9.028;2023-12-20T06:58:28;12.63;;;3.60;;
24102;SDS011;12278;53.058;9.028;2023-12-20T07:02:32;6.13;;;2.97;;
24102;SDS011;12278;53.058;9.028;2023-12-20T07:06:32;6.70;;;2.93;;
24102;SDS011;12278;53.058;9.028;2023-12-20T07:10:33;10.37;;;3.07;;
24102;SDS011;12278;53.058;9.028;2023-12-20T07:14:34;9.80;;;3.37;;
24102;SDS011;12278;53.058;9.028;2023-12-20T07:18:34;9.07;;;4.00;;
24102;SDS011;12278;53.058;9.028;2023-12-20T07:22:35;7.23;;;3.33;;
24102;SDS011;12278;53.058;9.028;2023-12-20T07:26:36;10.00;;;3.40;;
24102;SDS011;12278;53.058;9.028;2023-12-20T07:30:38;6.20;;;2.63;;
24102;SDS011;12278;53.058;9.028;2023-12-20T07:34:39;7.33;;;3.10;;
24102;SDS011;12278;53.058;9.028;2023-12-20T07:38:40;11.57;;;3.33;;
24102;SDS011;12278;53.058;9.028;2023-12-20T07:42:42;12.57;;;3.63;;
24102;SDS011;12278;53.058;9.028;2023-12-20T07:46:42;11.73;;;3.17;;
24102;SDS011;12278;53.058;9.028;2023-12-20T07:50:43;5.93;;;2.93;;
24102;SDS011;12278;53.058;9.028;2023-12-20T07:54:44;10.77;;;3.30;;
24102;SDS011;12278;53.058;9.028;2023-12-20T07:58:45;6.50;;;2.97;;
24102;SDS011;12278;53.058;9.028;2023-12-20T08:02:48;8.17;;;2.80;;
24102;SDS011;12278;53.058;9.028;2023-12-20T08:06:48;5.40;;;3.00;;
24102;SDS011;12278;53.058;9.028;2023-12-20T08:10:49;6.27;;;3.33;;
24102;SDS011;12278;53.058;9.028;2023-12-20T08:14:50;6.27;;;3.00;;
24102;SDS011;12278;53.058;9.028;2023-12-20T08:18:50;8.77;;;3.90;;
24102;SDS011;12278;53.058;9.028;2023-12-20T08:22:51;5.50;;;2.60;;
24102;SDS011;12278;53.058;9.028;2023-12-20T08:26:51;9.53;;;2.73;;
24102;SDS011;12278;53.058;9.028;2023-12-20T08:30:52;5.00;;;2.80;;
24102;SDS011;12278;53.058;9.028;2023-12-20T08:34:53;8.93;;;3.20;;
24102;SDS011;12278;53.058;9.028;2023-12-20T08:38:54;5.13;;;3.23;;
24102;SDS011;12278;53.058;9.028;2023-12-20T08:42:55;13.53;;;2.70;;
24102;SDS011;12278;53.058;9.028;2023-12-20T08:46:56;6.60;;;2.90;;
24102;SDS011;12278;53.058;9.028;2023-12-20T08:50:57;6.97;;;2.93;;
24102;SDS011;12278;53.058;9.028;2023-12-20T08:54:57;5.60;;;3.00;;
24102;SDS011;12278;53.058;9.028;2023-12-20T08:58:58;9.30;;;3.20;;
24102;SDS011;12278;53.058;9.028;2023-12-20T09:02:59;7.20;;;3.20;;
24102;SDS011;12278;53.058;9.028;2023-12-20T09:06:59;14.43;;;3.10;;
24102;SDS011;12278;53.058;9.028;2023-12-20T09:11:01;4.43;;;2.60;;
24102;SDS011;12278;53.058;9.028;2023-12-20T09:15:01;6.77;;;2.33;;
24102;SDS011;12278;53.058;9.028;2023-12-20T09:19:03;5.10;;;3.27;;
24102;SDS011;12278;53.058;9.028;2023-12-20T09:23:03;14.20;;;3.30;;
24102;SDS011;12278;53.058;9.028;2023-12-20T09:27:04;8.37;;;2.93;;
24102;SDS011;12278;53.058;9.028;2023-12-20T09:31:05;5.93;;;3.00;;
24102;SDS011;12278;53.058;9.028;2023-12-20T09:35:06;12.10;;;3.60;;
24102;SDS011;12278;53.058;9.028;2023-12-20T09:39:08;7.13;;;2.63;;
24102;SDS011;12278;53.058;9.028;2023-12-20T09:43:14;7.20;;;2.97;;
24102;SDS011;12278;53.058;9.028;2023-12-20T09:47:18;11.50;;;5.30;;
24102;SDS011;12278;53.058;9.028;2023-12-20T09:51:22;8.57;;;4.43;;
24102;SDS011;12278;53.058;9.028;2023-12-20T09:55:25;7.77;;;3.80;;
24102;SDS011;12278;53.058;9.028;2023-12-20T09:59:27;5.20;;;4.53;;
24102;SDS011;12278;53.058;9.028;2023-12-20T10:03:28;3.37;;;1.97;;
24102;SDS011;12278;53.058;9.028;2023-12-20T10:07:30;1.07;;;0.97;;
24102;SDS011;12278;53.058;9.028;2023-12-20T10:11:31;1.40;;;1.30;;
24102;SDS011;12278;53.058;9.028;2023-12-20T10:15:32;1.20;;;0.83;;
24102;SDS011;12278;53.058;9.028;2023-12-20T10:19:33;2.53;;;1.60;;
24102;SDS011;12278;53.058;9.028;2023-12-20T10:23:34;2.77;;;0.90;;
24102;SDS011;12278;53.058;9.028;2023-12-20T10:27:35;1.67;;;0.77;;
24102;SDS011;12278;53.058;9.028;2023-12-20T10:31:36;1.33;;;0.50;;
24102;SDS011;12278;53.058;9.028;2023-12-20T10:35:39;1.70;;;0.50;;
24102;SDS011;12278;53.058;9.028;2023-12-20T10:39:41;1.57;;;0.53;;
24102;SDS011;12278;53.058;9.028;2023-12-20T10:43:43;1.87;;;0.63;;
24102;SDS011;12278;53.058;9.028;2023-12-20T10:47:46;0.90;;;0.60;;
24102;SDS011;12278;53.058;9.028;2023-12-20T10:51:47;2.73;;;0.70;;
24102;SDS011;12278;53.058;9.028;2023-12-20T10:55:48;0.73;;;0.60;;
24102;SDS011;12278;53.058;9.028;2023-12-20T10:59:52;0.80;;;0.40;;
24102;SDS011;12278;53.058;9.028;2023-12-20T11:03:54;1.53;;;0.77;;
24102;SDS011;12278;53.058;9.028;2023-12-20T11:07:58;1.50;;;1.00;;
24102;SDS011;12278;53.058;9.028;2023-12-20T11:16:12;0.93;;;0.77;;
24102;SDS011;12278;53.058;9.028;2023-12-20T11:20:13;2.78;;;0.70;;
24102;SDS011;12278;53.058;9.028;2023-12-20T11:24:15;2.75;;;0.80;;
24102;SDS011;12278;53.058;9.028;2023-12-20T11:28:16;1.65;;;0.82;;
24102;SDS011;12278;53.058;9.028;2023-12-20T11:36:28;2.08;;;1.45;;
24102;SDS011;12278;53.058;9.028;2023-12-20T11:40:33;1.13;;;0.85;;
24102;SDS011;12278;53.058;9.028;2023-12-20T11:44:35;3.65;;;0.73;;
24102;SDS011;12278;53.058;9.028;2023-12-20T11:48:37;0.90;;;0.73;;
24102;SDS011;12278;53.058;9.028;2023-12-20T11:52:40;1.65;;;0.77;;
24102;SDS011;12278;53.058;9.028;2023-12-20T11:56:40;4.38;;;0.90;;
24102;SDS011;12278;53.058;9.028;2023-12-20T12:00:42;2.70;;;1.42;;
24102;SDS011;12278;53.058;9.028;2023-12-20T12:04:43;3.60;;;0.65;;
24102;SDS011;12278;53.058;9.028;2023-12-20T12:08:43;2.92;;;1.13;;
24102;SDS011;12278;53.058;9.028;2023-12-20T12:12:44;3.05;;;1.35;;
24102;SDS011;12278;53.058;9.028;2023-12-20T12:16:45;5.72;;;1.20;;
24102;SDS011;12278;53.058;9.028;2023-12-20T12:20:45;4.40;;;1.15;;
24102;SDS011;12278;53.058;9.028;2023-12-20T12:24:47;5.00;;;1.00;;
24102;SDS011;12278;53.058;9.028;2023-12-20T12:28:47;3.05;;;1.65;;
24102;SDS011;12278;53.058;9.028;2023-12-20T12:32:51;3.83;;;1.67;;
24102;SDS011;12278;53.058;9.028;2023-12-20T12:36:52;3.92;;;1.85;;
24102;SDS011;12278;53.058;9.028;2023-12-20T12:40:54;7.25;;;2.00;;
24102;SDS011;12278;53.058;9.028;2023-12-20T12:44:54;1.67;;;1.00;;
24102;SDS011;12278;53.058;9.028;2023-12-20T12:48:56;2.27;;;1.57;;
24102;SDS011;12278;53.058;9.028;2023-12-20T12:52:56;5.60;;;2.20;;
24102;SDS011;12278;53.058;9.028;2023-12-20T12:56:57;8.63;;;1.60;;
24102;SDS011;12278;53.058;9.028;2023-12-20T13:00:58;8.40;;;2.60;;
24102;SDS011;12278;53.058;9.028;2023-12-20T13:04:58;3.83;;;1.63;;
24102;SDS011;12278;53.058;9.028;2023-12-20T13:09:00;10.40;;;1.20;;
24102;SDS011;12278;53.058;9.028;2023-12-20T13:13:01;6.03;;;3.57;;
24102;SDS011;12278;53.058;9.028;2023-12-20T13:17:02;10.63;;;2.27;;
24102;SDS011;12278;53.058;9.028;2023-12-20T13:21:03;2.90;;;1.90;;
24102;SDS011;12278;53.058;9.028;2023-12-20T13:25:04;7.30;;;1.93;;
24102;SDS011;12278;53.058;9.028;2023-12-20T13:29:06;5.63;;;2.70;;
24102;SDS011;12278;53.058;9.028;2023-12-20T13:33:07;2.25;;;1.13;;
24102;SDS011;12278;53.058;9.028;2023-12-20T13:37:10;4.13;;;2.37;;
24102;SDS011;12278;53.058;9.028;2023-12-20T13:41:12;7.00;;;1.75;;
24102;SDS011;12278;53.058;9.028;2023-12-20T13:45:13;7.55;;;2.58;;
24102;SDS011;12278;53.058;9.028;2023-12-20T13:49:13;2.50;;;1.45;;
24102;SDS011;12278;53.058;9.028;2023-12-20T13:53:14;4.83;;;1.67;;
24102;SDS011;12278;53.058;9.028;2023-12-20T13:57:15;6.30;;;2.93;;
24102;SDS011;12278;53.058;9.028;2023-12-20T14:01:16;4.57;;;2.07;;
24102;SDS011;12278;53.058;9.028;2023-12-20T14:05:17;3.10;;;2.30;;
24102;SDS011;12278;53.058;9.028;2023-12-20T14:09:17;9.13;;;3.97;;
24102;SDS011;12278;53.058;9.028;2023-12-20T14:13:18;5.57;;;1.27;;
24102;SDS011;12278;53.058;9.028;2023-12-20T14:17:19;3.50;;;1.67;;
24102;SDS011;12278;53.058;9.028;2023-12-20T14:21:20;3.87;;;1.97;;
24102;SDS011;12278;53.058;9.028;2023-12-20T14:25:20;8.13;;;2.23;;
24102;SDS011;12278;53.058;9.028;2023-12-20T14:29:23;6.90;;;2.23;;
24102;SDS011;12278;53.058;9.028;2023-12-20T14:33:23;3.90;;;1.90;;
24102;SDS011;12278;53.058;9.028;2023-12-20T14:37:24;7.17;;;2.97;;
24102;SDS011;12278;53.058;9.028;2023-12-20T14:41:25;6.17;;;2.70;;
24102;SDS011;12278;53.058;9.028;2023-12-20T14:45:25;4.43;;;1.80;;
24102;SDS011;12278;53.058;9.028;2023-12-20T14:49:27;5.77;;;2.50;;
24102;SDS011;12278;53.058;9.028;2023-12-20T14:53:28;7.07;;;2.90;;
24102;SDS011;12278;53.058;9.028;2023-12-20T14:57:29;3.73;;;2.00;;
24102;SDS011;12278;53.058;9.028;2023-12-20T15:01:29;9.07;;;3.07;;
24102;SDS011;12278;53.058;9.028;2023-12-20T15:05:31;8.20;;;2.33;;
24102;SDS011;12278;53.058;9.028;2023-12-20T15:09:31;14.23;;;3.17;;
24102;SDS011;12278;53.058;9.028;2023-12-20T15:13:32;5.40;;;2.10;;
24102;SDS011;12278;53.058;9.028;2023-12-20T15:17:33;5.83;;;3.40;;
24102;SDS011;12278;53.058;9.028;2023-12-20T15:21:34;8.30;;;1.73;;
24102;SDS011;12278;53.058;9.028;2023-12-20T15:25:40;1.97;;;1.60;;
24102;SDS011;12278;53.058;9.028;2023-12-20T15:29:40;8.73;;;2.40;;
24102;SDS011;12278;53.058;9.028;2023-12-20T15:33:41;21.93;;;2.80;;
24102;SDS011;12278;53.058;9.028;2023-12-20T15:37:42;7.13;;;1.87;;
24102;SDS011;12278;53.058;9.028;2023-12-20T15:41:43;3.97;;;2.00;;
24102;SDS011;12278;53.058;9.028;2023-12-20T15:45:44;5.30;;;2.37;;
24102;SDS011;12278;53.058;9.028;2023-12-20T15:49:46;6.10;;;1.60;;
24102;SDS011;12278;53.058;9.028;2023-12-20T15:53:49;3.43;;;2.13;;
24102;SDS011;12278;53.058;9.028;2023-12-20T15:57:50;6.63;;;2.40;;
24102;SDS011;12278;53.058;9.028;2023-12-20T16:01:50;4.53;;;1.67;;
24102;SDS011;12278;53.058;9.028;2023-12-20T16:05:51;7.37;;;2.20;;
24102;SDS011;12278;53.058;9.028;2023-12-20T16:09:53;3.77;;;2.40;;
24102;SDS011;12278;53.058;9.028;2023-12-20T16:13:54;5.97;;;2.00;;
24102;SDS011;12278;53.058;9.028;2023-12-20T16:17:54;4.43;;;1.87;;
24102;SDS011;12278;53.058;9.028;2023-12-20T16:21:55;2.87;;;1.67;;
24102;SDS011;12278;53.058;9.028;2023-12-20T16:25:56;4.60;;;1.90;;
24102;SDS011;12278;53.058;9.028;2023-12-20T16:29:57;3.20;;;1.37;;
24102;SDS011;12278;53.058;9.028;2023-12-20T16:33:58;5.80;;;2.23;;
24102;SDS011;12278;53.058;9.028;2023-12-20T16:37:59;6.17;;;3.50;;
24102;SDS011;12278;53.058;9.028;2023-12-20T16:41:59;4.63;;;1.77;;
24102;SDS011;12278;53.058;9.028;2023-12-20T16:46:00;3.97;;;2.00;;
24102;SDS011;12278;53.058;9.028;2023-12-20T16:50:01;5.27;;;2.83;;
24102;SDS011;12278;53.058;9.028;2023-12-20T16:54:03;12.23;;;5.07;;
24102;SDS011;12278;53.058;9.028;2023-12-20T16:58:03;6.50;;;4.03;;
24102;SDS011;12278;53.058;9.028;2023-12-20T17:02:04;10.53;;;5.03;;
24102;SDS011;12278;53.058;9.028;2023-12-20T17:06:06;10.50;;;5.30;;
24102;SDS011;12278;53.058;9.028;2023-12-20T17:10:07;6.63;;;4.90;;
24102;SDS011;12278;53.058;9.028;2023-12-20T17:14:08;6.73;;;3.63;;
24102;SDS011;12278;53.058;9.028;2023-12-20T17:18:10;5.60;;;3.63;;
24102;SDS011;12278;53.058;9.028;2023-12-20T17:22:11;5.50;;;2.57;;
24102;SDS011;12278;53.058;9.028;2023-12-20T17:26:12;7.07;;;3.20;;
24102;SDS011;12278;53.058;9.028;2023-12-20T17:30:13;6.07;;;2.40;;
24102;SDS011;12278;53.058;9.028;2023-12-20T17:34:14;6.67;;;2.40;;
24102;SDS011;12278;53.058;9.028;2023-12-20T17:38:14;3.37;;;1.60;;
24102;SDS011;12278;53.058;9.028;2023-12-20T17:42:15;3.20;;;1.67;;
24102;SDS011;12278;53.058;9.028;2023-12-20T17:46:16;8.93;;;3.83;;
24102;SDS011;12278;53.058;9.028;2023-12-20T17:50:16;3.25;;;2.40;;
24102;SDS011;12278;53.058;9.028;2023-12-20T17:54:17;2.87;;;2.13;;
24102;SDS011;12278;53.058;9.028;2023-12-20T17:58:17;6.57;;;2.30;;
24102;SDS011;12278;53.058;9.028;2023-12-20T18:02:18;2.87;;;1.90;;
24102;SDS011;12278;53.058;9.028;2023-12-20T18:06:19;6.10;;;2.70;;
24102;SDS011;12278;53.058;9.028;2023-12-20T18:10:20;3.97;;;2.67;;
24102;SDS011;12278;53.058;9.028;2023-12-20T18:14:21;3.83;;;1.77;;
24102;SDS011;12278;53.058;9.028;2023-12-20T18:18:23;5.20;;;2.10;;
24102;SDS011;12278;53.058;9.028;2023-12-20T18:22:23;5.33;;;2.03;;
24102;SDS011;12278;53.058;9.028;2023-12-20T18:26:24;3.50;;;1.73;;
24102;SDS011;12278;53.058;9.028;2023-12-20T18:30:24;4.93;;;1.30;;
24102;SDS011;12278;53.058;9.028;2023-12-20T18:34:25;4.37;;;1.87;;
24102;SDS011;12278;53.058;9.028;2023-12-20T18:38:26;8.97;;;1.80;;
24102;SDS011;12278;53.058;9.028;2023-12-20T18:42:30;3.40;;;1.77;;
24102;SDS011;12278;53.058;9.028;2023-12-20T18:46:31;2.20;;;1.37;;
24102;SDS011;12278;53.058;9.028;2023-12-20T18:50:31;2.50;;;2.20;;
24102;SDS011;12278;53.058;9.028;2023-12-20T18:54:32;8.15;;;2.15;;
24102;SDS011;12278;53.058;9.028;2023-12-20T18:58:33;4.10;;;1.70;;
24102;SDS011;12278;53.058;9.028;2023-12-20T19:02:33;2.13;;;1.50;;
24102;SDS011;12278;53.058;9.028;2023-12-20T19:06:34;4.85;;;2.00;;
24102;SDS011;12278;53.058;9.028;2023-12-20T19:10:35;7.10;;;1.80;;
24102;SDS011;12278;53.058;9.028;2023-12-20T19:14:36;3.37;;;1.57;;
24102;SDS011;12278;53.058;9.028;2023-12-20T19:18:36;4.27;;;1.80;;
24102;SDS011;12278;53.058;9.028;2023-12-20T19:22:37;5.70;;;2.07;;
24102;SDS011;12278;53.058;9.028;2023-12-20T19:26:38;4.30;;;2.50;;
24102;SDS011;12278;53.058;9.028;2023-12-20T19:30:40;5.23;;;2.37;;
24102;SDS011;12278;53.058;9.028;2023-12-20T19:34:40;5.80;;;3.00;;
24102;SDS011;12278;53.058;9.028;2023-12-20T19:38:43;5.20;;;2.40;;
24102;SDS011;12278;53.058;9.028;2023-12-20T19:42:44;9.00;;;3.03;;
24102;SDS011;12278;53.058;9.028;2023-12-20T19:46:45;6.00;;;2.70;;
24102;SDS011;12278;53.058;9.028;2023-12-20T19:50:48;4.70;;;2.33;;
24102;SDS011;12278;53.058;9.028;2023-12-20T19:54:50;6.00;;;2.20;;
24102;SDS011;12278;53.058;9.028;2023-12-20T19:58:51;4.93;;;3.03;;
24102;SDS011;12278;53.058;9.028;2023-12-20T20:02:52;3.50;;;2.67;;
24102;SDS011;12278;53.058;9.028;2023-12-20T20:06:52;11.73;;;3.20;;
24102;SDS011;12278;53.058;9.028;2023-12-20T20:10:53;7.07;;;3.67;;
24102;SDS011;12278;53.058;9.028;2023-12-20T20:14:54;6.17;;;3.57;;
24102;SDS011;12278;53.058;9.028;2023-12-20T20:18:54;9.20;;;3.53;;
24102;SDS011;12278;53.058;9.028;2023-12-20T20:22:55;5.10;;;2.87;;
24102;SDS011;12278;53.058;9.028;2023-12-20T20:26:55;6.53;;;3.63;;
24102;SDS011;12278;53.058;9.028;2023-12-20T20:30:56;6.93;;;3.30;;
24102;SDS011;12278;53.058;9.028;2023-12-20T20:34:57;8.07;;;4.20;;
24102;SDS011;12278;53.058;9.028;2023-12-20T20:38:58;5.63;;;3.97;;
24102;SDS011;12278;53.058;9.028;2023-12-20T20:42:58;8.83;;;4.30;;
24102;SDS011;12278;53.058;9.028;2023-12-20T20:46:59;7.60;;;4.10;;
24102;SDS011;12278;53.058;9.028;2023-12-20T20:51:00;8.87;;;4.30;;
24102;SDS011;12278;53.058;9.028;2023-12-20T20:55:02;8.35;;;5.22;;
24102;SDS011;12278;53.058;9.028;2023-12-20T20:59:02;4.77;;;3.70;;
24102;SDS011;12278;53.058;9.028;2023-12-20T21:03:04;9.50;;;3.93;;
24102;SDS011;12278;53.058;9.028;2023-12-20T21:07:04;6.10;;;4.35;;
24102;SDS011;12278;53.058;9.028;2023-12-20T21:11:05;10.50;;;4.30;;
24102;SDS011;12278;53.058;9.028;2023-12-20T21:15:06;8.07;;;4.30;;
24102;SDS011;12278;53.058;9.028;2023-12-20T21:19:07;5.63;;;3.72;;
24102;SDS011;12278;53.058;9.028;2023-12-20T21:23:07;5.00;;;2.63;;
24102;SDS011;12278;53.058;9.028;2023-12-20T21:27:10;4.20;;;3.33;;
24102;SDS011;12278;53.058;9.028;2023-12-20T21:31:11;3.25;;;2.80;;
24102;SDS011;12278;53.058;9.028;2023-12-20T21:35:12;5.67;;;3.53;;
24102;SDS011;12278;53.058;9.028;2023-12-20T21:39:13;3.63;;;2.72;;
24102;SDS011;12278;53.058;9.028;2023-12-20T21:43:14;2.67;;;2.10;;
24102;SDS011;12278;53.058;9.028;2023-12-20T21:47:15;4.18;;;2.85;;
24102;SDS011;12278;53.058;9.028;2023-12-20T21:51:15;3.88;;;2.80;;
24102;SDS011;12278;53.058;9.028;2023-12-20T21:55:17;3.33;;;2.35;;
24102;SDS011;12278;53.058;9.028;2023-12-20T21:59:18;3.38;;;2.58;;
24102;SDS011;12278;53.058;9.028;2023-12-20T22:03:21;2.53;;;1.95;;
24102;SDS011;12278;53.058;9.028;2023-12-20T22:07:21;3.20;;;2.45;;
24102;SDS011;12278;53.058;9.028;2023-12-20T22:11:22;1.98;;;1.73;;
24102;SDS011;12278;53.058;9.028;2023-12-20T22:15:22;2.25;;;1.80;;
24102;SDS011;12278;53.058;9.028;2023-12-20T22:19:23;1.40;;;1.30;;
24102;SDS011;12278;53.058;9.028;2023-12-20T22:23:24;1.60;;;1.50;;
24102;SDS011;12278;53.058;9.028;2023-12-20T22:27:24;2.60;;;1.88;;
24102;SDS011;12278;53.058;9.028;2023-12-20T22:31:25;1.90;;;1.70;;
24102;SDS011;12278;53.058;9.028;2023-12-20T22:35:26;1.50;;;1.40;;
24102;SDS011;12278;53.058;9.028;2023-12-20T22:39:26;1.52;;;1.35;;
24102;SDS011;12278;53.058;9.028;2023-12-20T22:43:27;1.60;;;1.42;;
24102;SDS011;12278;53.058;9.028;2023-12-20T22:47:31;2.50;;;1.45;;
24102;SDS011;12278;53.058;9.028;2023-12-20T22:51:32;2.25;;;1.25;;
24102;SDS011;12278;53.058;9.028;2023-12-20T22:55:33;1.67;;;1.58;;
24102;SDS011;12278;53.058;9.028;2023-12-20T22:59:34;1.50;;;1.10;;
24102;SDS011;12278;53.058;9.028;2023-12-20T23:03:35;1.25;;;1.00;;
24102;SDS011;12278;53.058;9.028;2023-12-20T23:07:36;0.82;;;0.80;;
24102;SDS011;12278;53.058;9.028;2023-12-20T23:11:37;1.00;;;1.00;;
24102;SDS011;12278;53.058;9.028;2023-12-20T23:15:38;1.33;;;1.23;;
24102;SDS011;12278;53.058;9.028;2023-12-20T23:19:39;1.40;;;1.30;;
24102;SDS011;12278;53.058;9.028;2023-12-20T23:23:41;1.65;;;1.13;;
24102;SDS011;12278;53.058;9.028;2023-12-20T23:27:41;1.00;;;1.00;;
24102;SDS011;12278;53.058;9.028;2023-12-20T23:31:46;1.25;;;1.15;;
24102;SDS011;12278;53.058;9.028;2023-12-20T23:35:46;1.23;;;1.08;;
24102;SDS011;12278;53.058;9.028;2023-12-20T23:39:47;2.72;;;1.05;;
24102;SDS011;12278;53.058;9.028;2023-12-20T23:43:47;0.90;;;0.70;;
24102;SDS011;12278;53.058;9.028;2023-12-20T23:47:48;0.88;;;0.80;;
24102;SDS011;12278;53.058;9.028;2023-12-20T23:51:52;0.95;;;0.90;;
24102;SDS011;12278;53.058;9.028;2023-12-20T23:55:52;1.02;;;0.90;;
24102;SDS011;12278;53.058;9.028;2023-12-20T23:59:53;1.90;;;0.95;;
